createdAt,value
2024-04-18T00:01:44.210Z,75.40
2024-04-18T00:04:14.777Z,75.70
2024-04-18T00:06:45.183Z,75.90
2024-04-18T00:09:20.062Z,76.70
2024-04-18T00:11:48.302Z,76.30
2024-04-18T00:14:18.505Z,76.60
2024-04-18T00:16:46.143Z,76.80
2024-04-18T00:19:19.845Z,77.10
2024-04-18T00:22:04.235Z,77.40
2024-04-18T00:24:33.006Z,77.70
2024-04-18T00:27:23.459Z,77.90
2024-04-18T00:29:51.210Z,77.80
2024-04-18T00:32:21.482Z,78.30
2024-04-18T00:35:08.108Z,78.60
2024-04-18T00:37:41.459Z,79.00
2024-04-18T00:40:09.914Z,79.20
2024-04-18T00:42:41.929Z,79.50
2024-04-18T00:45:09.773Z,79.80
2024-04-18T00:47:47.994Z,79.70
2024-04-18T00:50:43.171Z,80.60
2024-04-18T00:53:27.862Z,80.50
2024-04-18T00:55:56.043Z,80.50
2024-04-18T00:58:45.056Z,80.70
2024-04-18T01:01:23.721Z,80.80
2024-04-18T01:04:01.130Z,80.80
2024-04-18T01:06:43.060Z,80.40
2024-04-18T01:09:23.725Z,81.00
2024-04-18T01:12:09.434Z,80.70
2024-04-18T01:14:39.881Z,80.80
2024-04-18T01:17:07.568Z,81.10
2024-04-18T01:19:38.446Z,81.30
2024-04-18T01:22:06.422Z,81.40
2024-04-18T01:24:39.925Z,81.20
2024-04-18T01:27:10.216Z,81.00
2024-04-18T01:29:46.642Z,80.80
2024-04-18T01:32:35.294Z,80.80
2024-04-18T01:35:06.510Z,80.50
2024-04-18T01:37:49.385Z,80.40
2024-04-18T01:40:20.199Z,80.20
2024-04-18T01:43:10.096Z,80.40
2024-04-18T01:46:00.792Z,80.50
2024-04-18T01:48:28.665Z,80.40
2024-04-18T01:51:17.522Z,80.30
2024-04-18T01:53:45.293Z,80.30
2024-04-18T01:56:21.650Z,80.20
2024-04-18T01:58:51.919Z,80.20
2024-04-18T02:01:28.267Z,80.40
2024-04-18T02:03:56.159Z,80.70
2024-04-18T02:06:26.796Z,80.70
2024-04-18T02:08:54.705Z,81.10
2024-04-18T02:11:44.251Z,81.30
2024-04-18T02:14:14.984Z,81.80
2024-04-18T02:16:45.367Z,81.80
2024-04-18T02:19:27.619Z,82.50
2024-04-18T02:22:30.851Z,82.80
2024-04-18T02:25:27.897Z,83.10
2024-04-18T02:27:58.102Z,83.20
2024-04-18T02:30:29.288Z,83.60
2024-04-18T02:33:18.175Z,83.90
2024-04-18T02:35:46.696Z,84.10
2024-04-18T02:38:36.149Z,84.00
2024-04-18T02:41:05.180Z,84.00
2024-04-18T02:43:56.951Z,85.00
2024-04-18T02:46:27.860Z,84.40
2024-04-18T02:49:16.223Z,85.60
2024-04-18T02:51:57.520Z,84.20
2024-04-18T02:54:47.003Z,84.10
2024-04-18T02:57:14.897Z,83.50
2024-04-18T02:59:45.467Z,83.40
2024-04-18T03:02:25.587Z,83.40
2024-04-18T03:05:15.967Z,83.30
2024-04-18T03:07:44.689Z,83.60
2024-04-18T03:10:15.159Z,83.80
2024-04-18T03:13:01.143Z,83.90
2024-04-18T03:15:51.655Z,84.10
2024-04-18T03:18:22.526Z,84.30
2024-04-18T03:21:09.275Z,84.40
2024-04-18T03:23:43.096Z,84.40
2024-04-18T03:26:33.713Z,84.70
2024-04-18T03:29:01.398Z,85.00
2024-04-18T03:31:31.629Z,84.90
2024-04-18T03:34:01.996Z,84.90
2024-04-18T03:36:34.536Z,85.10
2024-04-18T03:39:04.773Z,85.00
2024-04-18T03:41:35.239Z,84.90
2024-04-18T03:44:18.332Z,84.80
2024-04-18T03:46:48.538Z,84.50
2024-04-18T03:49:40.262Z,84.60
2024-04-18T03:52:07.901Z,84.40
2024-04-18T03:54:55.302Z,84.30
2024-04-18T03:57:41.296Z,84.10
2024-04-18T04:00:12.867Z,84.00
2024-04-18T04:02:40.687Z,84.10
2024-04-18T04:05:13.536Z,84.30
2024-04-18T04:07:41.207Z,84.90
2024-04-18T04:10:11.501Z,84.30
2024-04-18T04:12:41.093Z,84.50
2024-04-18T04:15:12.268Z,84.70
2024-04-18T04:18:00.514Z,86.00
2024-04-18T04:20:47.327Z,85.10
2024-04-18T04:23:14.967Z,86.80
2024-04-18T04:26:00.690Z,85.30
2024-04-18T04:28:28.454Z,85.60
2024-04-18T04:30:58.706Z,86.80
2024-04-18T04:33:29.096Z,86.00
2024-04-18T04:36:02.200Z,87.70
2024-04-18T04:38:30.088Z,87.40
2024-04-18T04:41:00.567Z,87.50
2024-04-18T04:43:28.195Z,87.50
2024-04-18T04:45:58.443Z,87.70
2024-04-18T04:48:38.318Z,87.70
2024-04-18T04:51:18.435Z,86.50
2024-04-18T04:54:04.560Z,86.50
2024-04-18T04:56:44.117Z,86.60
2024-04-18T04:59:21.019Z,85.60
2024-04-18T05:01:53.942Z,85.60
2024-04-18T05:04:41.875Z,85.80
2024-04-18T05:07:34.875Z,84.90
2024-04-18T05:10:21.347Z,84.90
2024-04-18T05:12:52.119Z,84.00
2024-04-18T05:15:35.393Z,84.30
2024-04-18T05:18:05.848Z,84.80
2024-04-18T05:20:33.621Z,84.30
2024-04-18T05:23:08.137Z,84.30
2024-04-18T05:25:36.626Z,84.60
2024-04-18T05:33:14.254Z,85.20
2024-04-18T05:35:48.808Z,83.60
2024-04-18T05:38:22.867Z,83.30
2024-04-18T05:40:54.431Z,83.30
2024-04-18T05:43:45.333Z,83.10
2024-04-18T05:49:27.683Z,83.30
2024-04-18T05:52:15.553Z,82.60
2024-04-18T05:54:49.794Z,83.10
2024-04-18T05:57:39.275Z,83.70
2024-04-18T06:00:30.500Z,83.00
2024-04-18T06:03:02.568Z,82.50
2024-04-18T06:05:36.365Z,81.60
2024-04-18T06:08:20.587Z,81.10
2024-04-18T06:10:55.187Z,81.90
2024-04-18T06:13:28.548Z,81.50
2024-04-18T06:16:02.080Z,81.90
2024-04-18T06:19:00.901Z,81.60
2024-04-18T06:21:33.396Z,82.50
2024-04-18T06:24:13.751Z,81.60
2024-04-18T06:26:50.577Z,82.00
2024-04-18T06:29:22.260Z,82.10
2024-04-18T06:31:58.404Z,81.90
2024-04-18T06:35:13.384Z,81.80
2024-04-18T06:39:06.050Z,81.20
2024-04-18T06:46:42.670Z,79.90
2024-04-18T06:49:35.047Z,79.00
2024-04-18T06:52:33.648Z,79.50
2024-04-18T08:24:19.375Z,79.80
2024-04-18T08:26:49.763Z,79.30
2024-04-18T08:29:24.055Z,79.20
2024-04-18T08:31:55.825Z,78.60
2024-04-18T08:34:29.247Z,78.50
2024-04-18T08:37:00.912Z,78.60
2024-04-18T08:39:31.352Z,78.50
2024-04-18T08:42:03.010Z,78.70
2024-04-18T08:44:33.948Z,78.80
2024-04-18T08:47:05.121Z,78.70
2024-04-18T08:49:41.644Z,78.80
2024-04-18T08:52:15.578Z,79.00
2024-04-18T08:54:45.927Z,78.80
2024-04-18T08:57:21.589Z,78.50
2024-04-18T08:59:54.462Z,76.90
2024-04-18T09:02:24.807Z,76.90
2024-04-18T09:05:00.985Z,77.00
2024-04-18T09:07:31.231Z,76.80
2024-04-18T09:10:07.886Z,76.90
2024-04-18T09:12:39.428Z,76.50
2024-04-18T09:15:10.296Z,77.00
2024-04-18T09:17:40.569Z,76.40
2024-04-18T09:20:13.966Z,75.50
2024-04-18T09:22:45.257Z,75.80
2024-04-18T09:25:15.598Z,76.60
2024-04-18T09:27:45.771Z,76.40
2024-04-18T09:30:17.122Z,75.90
2024-04-18T09:32:47.863Z,75.30
2024-04-18T09:35:21.485Z,75.30
2024-04-18T09:37:56.839Z,75.80
2024-04-18T09:40:35.145Z,75.40
2024-04-18T09:43:17.266Z,75.00
2024-04-18T09:45:52.308Z,74.50
2024-04-18T09:48:24.133Z,75.00
2024-04-18T09:50:58.890Z,74.00
2024-04-18T09:53:30.037Z,73.80
2024-04-18T09:56:02.214Z,74.60
2024-04-18T09:58:33.064Z,75.00
2024-04-18T10:01:03.501Z,75.40
2024-04-18T10:03:33.901Z,75.10
2024-04-18T10:06:10.575Z,74.60
2024-04-18T10:08:44.183Z,74.30
2024-04-18T10:11:16.173Z,72.20
2024-04-18T10:13:46.747Z,72.20
2024-04-18T10:16:17.779Z,73.70
2024-04-18T10:18:50.857Z,73.20
2024-04-18T10:21:38.057Z,71.20
2024-04-18T10:24:22.188Z,70.60
2024-04-18T10:27:01.516Z,72.40
2024-04-18T10:29:31.971Z,70.60
2024-04-18T10:32:02.424Z,71.20
2024-04-18T10:34:33.936Z,69.10
2024-04-18T10:37:10.757Z,69.40
2024-04-18T11:20:28.508Z,60.90
2024-04-18T11:23:08.721Z,61.30
2024-04-18T11:25:43.931Z,62.20
2024-04-18T11:28:16.331Z,62.10
2024-04-18T11:30:46.743Z,61.80
2024-04-18T11:33:23.531Z,61.20
2024-04-18T11:35:56.785Z,61.40
2024-04-18T11:38:30.514Z,60.40
2024-04-18T11:41:01.835Z,60.90
2024-04-18T11:43:32.348Z,60.20
2024-04-18T11:46:03.216Z,61.30
2024-04-18T11:48:33.809Z,60.70
2024-04-18T11:51:07.314Z,61.30
2024-04-18T11:53:37.630Z,60.40
2024-04-18T11:56:08.239Z,59.40
2024-04-18T11:58:38.752Z,56.90
2024-04-18T12:01:11.078Z,57.00
2024-04-18T12:03:43.073Z,58.90
2024-04-18T12:06:34.913Z,56.50
2024-04-18T12:09:05.236Z,57.10
2024-04-18T12:11:36.181Z,58.10
2024-04-18T12:14:15.832Z,56.50
2024-04-18T12:16:59.223Z,57.30
2024-04-18T12:19:45.756Z,58.60
2024-04-18T12:22:37.714Z,58.00
2024-04-18T12:25:18.113Z,57.50
2024-04-18T12:27:50.728Z,58.50
2024-04-18T12:30:34.460Z,56.60
2024-04-18T12:33:23.929Z,56.40
2024-04-18T12:35:54.636Z,59.20
2024-04-18T12:38:27.596Z,58.90
2024-04-18T12:41:05.751Z,57.90
2024-04-18T12:43:37.939Z,59.10
2024-04-18T12:46:27.240Z,59.80
2024-04-18T12:48:58.693Z,59.60
2024-04-18T12:51:29.766Z,58.70
2024-04-18T12:54:03.037Z,58.70
2024-04-18T12:56:52.262Z,58.60
2024-04-18T12:59:25.838Z,58.40
2024-04-18T13:01:56.578Z,55.90
2024-04-18T13:04:27.060Z,58.60
2024-04-18T13:06:58.460Z,61.00
2024-04-18T13:09:35.104Z,61.50
2024-04-18T13:12:06.238Z,64.40
2024-04-18T13:14:55.209Z,65.20
2024-04-18T13:17:25.760Z,62.20
2024-04-18T13:19:56.152Z,63.20
2024-04-18T13:22:26.987Z,66.00
2024-04-18T13:24:59.869Z,64.00
2024-04-18T13:27:32.397Z,62.80
2024-04-18T13:30:07.440Z,62.00
2024-04-18T13:32:39.527Z,64.20
2024-04-18T13:35:11.249Z,61.20
2024-04-18T13:37:41.690Z,60.00
2024-04-18T13:40:23.454Z,61.10
2024-04-18T13:43:01.302Z,61.40
2024-04-18T13:45:33.501Z,60.30
2024-04-18T13:48:04.459Z,60.80
2024-04-18T13:50:48.350Z,55.60
2024-04-18T13:53:18.726Z,56.80
2024-04-18T13:55:52.450Z,58.20
2024-04-18T13:58:26.284Z,56.40
2024-04-18T14:01:02.197Z,57.90
2024-04-18T14:03:33.295Z,59.30
2024-04-18T14:06:11.584Z,57.90
2024-04-18T14:08:42.456Z,57.30
2024-04-18T14:11:33.709Z,57.00
2024-04-18T14:14:11.468Z,55.10
2024-04-18T14:17:17.573Z,54.90
2024-04-18T14:20:06.560Z,54.90
2024-04-18T14:22:47.961Z,55.30
2024-04-18T14:25:18.471Z,54.70
2024-04-18T14:28:20.308Z,54.30
2024-04-18T14:31:18.036Z,54.40
2024-04-18T14:33:51.414Z,54.20
2024-04-18T14:36:22.228Z,54.30
2024-04-18T14:38:52.606Z,54.10
2024-04-18T14:41:22.819Z,55.80
2024-04-18T14:44:00.370Z,56.70
2024-04-18T14:46:31.588Z,53.80
2024-04-18T14:49:21.851Z,54.10
2024-04-18T14:51:58.584Z,54.40
2024-04-18T14:54:31.850Z,55.50
2024-04-18T14:57:05.573Z,55.80
2024-04-18T14:59:44.661Z,57.20
2024-04-18T15:02:15.241Z,57.00
2024-04-18T15:05:03.898Z,57.20
2024-04-18T15:07:34.162Z,57.30
2024-04-18T15:10:21.248Z,56.70
2024-04-18T15:13:01.058Z,57.70
2024-04-18T15:15:34.019Z,56.60
2024-04-18T15:18:04.991Z,57.80
2024-04-18T15:20:36.066Z,57.40
2024-04-18T15:23:14.817Z,57.80
2024-04-18T15:25:46.630Z,57.70
2024-04-18T15:28:17.825Z,58.00
2024-04-18T15:30:51.094Z,58.80
2024-04-18T15:33:25.890Z,58.20
2024-04-18T15:35:58.135Z,58.30
2024-04-18T15:38:28.734Z,57.60
2024-04-18T15:41:17.783Z,57.70
2024-04-18T15:43:49.353Z,57.30
2024-04-18T15:46:41.508Z,57.70
2024-04-18T15:49:13.066Z,58.20
2024-04-18T15:51:46.572Z,58.10
2024-04-18T15:54:18.232Z,58.20
2024-04-18T15:56:48.656Z,58.00
2024-04-18T15:59:37.387Z,58.00
2024-04-18T16:02:11.590Z,57.90
2024-04-18T16:04:47.873Z,57.70
2024-04-18T16:07:19.708Z,57.60
2024-04-18T16:09:57.045Z,57.70
2024-04-18T16:12:27.713Z,57.40
2024-04-18T16:15:12.908Z,57.90
2024-04-18T16:18:07.991Z,58.10
2024-04-18T16:20:56.781Z,57.90
2024-04-18T16:23:43.474Z,58.10
2024-04-18T16:26:16.135Z,58.10
2024-04-18T16:28:50.259Z,58.20
2024-04-18T16:31:20.587Z,58.50
2024-04-18T16:34:13.863Z,58.70
2024-04-18T16:36:49.787Z,58.30
2024-04-18T16:43:11.864Z,58.90
2024-04-18T16:46:01.386Z,58.70
2024-04-18T16:48:31.696Z,59.20
2024-04-18T16:51:04.977Z,59.30
2024-04-18T16:53:56.466Z,58.70
2024-04-18T16:56:26.841Z,58.90
2024-04-18T16:58:57.749Z,58.90
2024-04-18T17:01:28.376Z,59.10
2024-04-18T17:03:59.666Z,58.40
2024-04-18T17:06:45.702Z,57.80
2024-04-18T17:09:19.125Z,58.10
2024-04-18T17:11:49.666Z,57.40
2024-04-18T17:14:41.635Z,57.20
2024-04-18T17:17:12.475Z,57.50
2024-04-18T17:20:12.896Z,57.60
2024-04-18T17:22:46.586Z,57.30
2024-04-18T17:25:18.024Z,57.10
2024-04-18T17:27:48.368Z,57.00
2024-04-18T17:30:19.003Z,57.00
2024-04-18T17:32:50.780Z,56.60
2024-04-18T17:35:46.030Z,56.20
2024-04-18T17:38:19.472Z,56.00
2024-04-18T17:41:16.256Z,56.10
2024-04-18T17:43:47.859Z,55.10
2024-04-18T17:46:19.509Z,54.40
2024-04-18T17:48:50.631Z,54.50
2024-04-18T17:51:21.415Z,54.70
2024-04-18T17:53:54.624Z,54.80
2024-04-18T17:56:25.213Z,54.10
2024-04-18T17:58:55.452Z,54.00
2024-04-18T18:01:26.333Z,53.10
2024-04-18T18:04:17.844Z,53.80
2024-04-18T18:06:48.263Z,53.50
2024-04-18T18:09:21.565Z,53.90
2024-04-18T18:11:53.068Z,53.90
2024-04-18T18:14:23.544Z,53.90
2024-04-18T18:17:03.461Z,53.90
2024-04-18T18:19:34.042Z,53.80
2024-04-18T18:22:05.285Z,53.80
2024-04-18T18:24:40.563Z,54.60
2024-04-18T18:27:11.760Z,54.40
2024-04-18T18:29:40.728Z,54.80
2024-04-18T18:32:14.780Z,55.80
2024-04-18T18:34:42.982Z,55.20
2024-04-18T18:37:13.625Z,55.40
2024-04-18T18:39:50.495Z,55.60
2024-04-18T18:42:18.531Z,56.70
2024-04-18T18:44:49.293Z,55.10
2024-04-18T18:47:17.411Z,55.70
2024-04-18T18:49:53.775Z,55.10
2024-04-18T18:52:23.814Z,55.60
2024-04-18T18:54:57.017Z,55.10
2024-04-18T18:57:25.033Z,55.70
2024-04-18T18:59:55.452Z,54.00
2024-04-18T19:02:23.330Z,54.80
2024-04-18T19:05:05.603Z,54.20
2024-04-18T19:07:33.712Z,53.70
2024-04-18T19:10:07.970Z,54.00
2024-04-18T19:12:36.646Z,54.00
2024-04-18T19:15:09.601Z,53.60
2024-04-18T19:17:40.018Z,54.40
2024-04-18T19:20:11.213Z,54.40
2024-04-18T19:22:38.972Z,54.70
2024-04-18T19:25:11.989Z,54.30
2024-04-18T19:27:39.694Z,54.30
2024-04-18T19:30:11.254Z,54.10
2024-04-18T19:32:39.236Z,55.10
2024-04-18T19:35:27.501Z,54.20
2024-04-18T19:37:56.010Z,54.90
2024-04-18T19:40:50.023Z,54.70
2024-04-18T19:43:17.755Z,56.20
2024-04-18T19:45:56.994Z,56.40
2024-04-18T19:48:25.002Z,55.80
2024-04-18T19:50:55.750Z,55.90
2024-04-18T19:53:24.344Z,56.10
2024-04-18T19:55:58.330Z,57.30
2024-04-18T19:58:26.528Z,57.40
2024-04-18T20:00:56.971Z,58.00
2024-04-18T20:03:25.329Z,57.30
2024-04-18T20:05:57.627Z,58.60
2024-04-18T20:08:45.893Z,59.10
2024-04-18T20:11:19.991Z,58.40
2024-04-18T20:13:47.740Z,58.30
2024-04-18T20:16:18.554Z,58.20
2024-04-18T20:18:47.814Z,57.90
2024-04-18T20:21:19.539Z,58.00
2024-04-18T20:23:55.534Z,58.20
2024-04-18T20:26:30.465Z,58.30
2024-04-18T20:29:13.322Z,58.70
2024-04-18T20:31:43.716Z,58.70
2024-04-18T20:34:11.577Z,58.40
2024-04-18T20:36:41.989Z,58.20
2024-04-18T20:39:09.843Z,58.30
2024-04-18T20:41:43.002Z,58.10
2024-04-18T20:44:11.074Z,57.90
2024-04-18T20:46:41.769Z,58.20
2024-04-18T20:49:09.652Z,59.50
2024-04-18T20:51:40.272Z,58.70
2024-04-18T20:54:09.443Z,58.30
2024-04-18T20:56:42.936Z,58.20
2024-04-18T20:59:15.742Z,58.30
2024-04-18T21:01:46.145Z,58.70
2024-04-18T21:04:14.143Z,59.30
2024-04-18T21:06:44.534Z,59.60
2024-04-18T21:09:12.796Z,59.20
2024-04-18T21:11:45.710Z,58.80
2024-04-18T21:14:14.060Z,59.80
2024-04-18T21:16:44.884Z,60.40
2024-04-18T21:19:15.116Z,60.20
2024-04-18T21:21:47.420Z,59.90
2024-04-18T21:24:15.206Z,60.00
2024-04-18T21:26:54.184Z,59.80
2024-04-18T21:29:22.191Z,60.80
2024-04-18T21:31:52.527Z,60.50
2024-04-18T21:34:20.242Z,60.40
2024-04-18T21:36:53.606Z,60.90
2024-04-18T21:39:21.254Z,60.40
2024-04-18T21:41:54.218Z,61.70
2024-04-18T21:44:22.327Z,61.80
2024-04-18T21:46:52.539Z,61.80
2024-04-18T21:49:20.599Z,62.30
2024-04-18T21:51:50.974Z,61.80
2024-04-18T21:54:18.712Z,61.60
2024-04-18T21:56:49.315Z,62.30
2024-04-18T21:59:19.558Z,62.40
2024-04-18T22:01:49.940Z,62.40
2024-04-18T22:04:17.907Z,63.00
2024-04-18T22:06:49.062Z,62.70
2024-04-18T22:09:17.550Z,63.40
2024-04-18T22:11:48.562Z,62.90
2024-04-18T22:14:16.307Z,63.80
2024-04-18T22:16:49.371Z,63.20
2024-04-18T22:19:17.088Z,63.10
2024-04-18T22:21:47.650Z,63.80
2024-04-18T22:24:15.600Z,64.20
2024-04-18T22:26:46.402Z,64.40
2024-04-18T22:29:14.108Z,64.10
2024-04-18T22:31:44.463Z,64.40
2024-04-18T22:34:24.669Z,65.00
2024-04-18T22:37:04.039Z,64.10
2024-04-18T22:39:32.049Z,63.80
2024-04-18T22:42:02.859Z,64.50
2024-04-18T22:44:32.796Z,65.90
2024-04-18T22:47:03.007Z,65.00
2024-04-18T22:49:35.362Z,65.40
2024-04-18T22:52:06.932Z,65.40
2024-04-18T22:54:34.731Z,65.50
2024-04-18T22:57:20.309Z,65.20
2024-04-18T22:59:49.363Z,65.60
2024-04-18T23:02:19.840Z,65.90
2024-04-18T23:04:50.947Z,65.10
2024-04-18T23:07:21.525Z,65.60
2024-04-18T23:09:49.221Z,65.60
2024-04-18T23:12:19.552Z,65.70
2024-04-18T23:14:50.536Z,65.80
2024-04-18T23:17:18.344Z,66.30
2024-04-18T23:19:48.667Z,66.20
2024-04-18T23:22:19.947Z,65.90
2024-04-18T23:24:51.385Z,65.90
2024-04-18T23:27:19.065Z,66.40
2024-04-18T23:29:49.334Z,66.60
2024-04-18T23:32:17.040Z,66.40
2024-04-18T23:34:47.440Z,66.10
2024-04-18T23:37:15.511Z,66.40
2024-04-18T23:39:48.815Z,66.50
2024-04-18T23:42:16.779Z,66.50
2024-04-18T23:44:47.122Z,66.50
2024-04-18T23:47:14.791Z,66.60
2024-04-18T23:49:45.794Z,66.50
2024-04-18T23:52:13.766Z,66.50
2024-04-18T23:54:46.189Z,66.90
2024-04-18T23:57:16.774Z,66.90
2024-04-18T23:59:47.385Z,67.10
